Time;durP1;ratioP1;P1;durP2;ratioP2;P2;SDS_P1;SDS_P2;PMS_P1;PMS_P2;Temp;Humidity;BMP_temperature;BMP_pressure;BME280_temperature;BME280_humidity;BME280_pressure;Samples;Min_cycle;Max_cycle;Signal;HPM_P1;HPM_P2
2021/11/14 00:00:51;;;;;;;3.70;3.40;;;;;;;20.91;53.99;97415.16;4941805;28;20231;-67
2021/11/14 00:03:18;;;;;;;4.03;3.67;;;;;;;20.82;54.10;97404.66;4952928;28;20254;-65
2021/11/14 00:05:45;;;;;;;3.77;3.47;;;;;;;20.81;54.17;97401.22;4944808;28;20230;-67
2021/11/14 00:08:13;;;;;;;3.90;3.60;;;;;;;20.95;54.11;97417.00;4942862;28;20207;-66
2021/11/14 00:10:42;;;;;;;3.83;3.43;;;;;;;20.96;54.07;97426.41;4945939;28;20646;-67
2021/11/14 00:13:08;;;;;;;3.77;3.47;;;;;;;20.94;53.98;97422.91;4952685;28;20207;-65
2021/11/14 00:15:35;;;;;;;4.00;3.60;;;;;;;20.93;53.81;97414.38;4960843;28;20508;-65
2021/11/14 00:18:02;;;;;;;3.80;3.50;;;;;;;20.87;54.07;97401.41;4945430;28;20991;-65
2021/11/14 00:20:28;;;;;;;4.40;4.00;;;;;;;20.86;54.03;97404.78;4945131;28;20230;-65
2021/11/14 00:22:55;;;;;;;4.20;3.80;;;;;;;20.93;53.89;97416.06;4944780;28;20273;-65
2021/11/14 00:25:22;;;;;;;3.80;3.50;;;;;;;20.90;54.14;97405.75;4976685;28;20211;-68
2021/11/14 00:27:49;;;;;;;4.03;3.73;;;;;;;20.93;53.91;97406.69;4950169;28;20705;-65
2021/11/14 00:30:16;;;;;;;3.30;3.10;;;;;;;20.93;54.10;97406.69;4960219;28;20546;-65
2021/11/14 00:32:43;;;;;;;3.93;3.63;;;;;;;20.62;54.06;97354.66;4962074;28;20210;-66
2021/11/14 00:35:10;;;;;;;3.70;3.40;;;;;;;20.71;54.26;97373.69;4956516;28;20512;-65
2021/11/14 00:37:37;;;;;;;3.60;3.30;;;;;;;20.93;54.04;97416.06;4957107;28;20214;-66
2021/11/14 00:40:31;;;;;;;3.90;3.60;;;;;;;20.84;54.22;97396.22;4944636;28;20230;-65
2021/11/14 00:42:58;;;;;;;3.97;3.67;;;;;;;20.92;54.07;97412.63;4977535;28;20281;-65
2021/11/14 00:45:25;;;;;;;4.10;3.80;;;;;;;20.80;54.23;97385.84;4975733;28;20746;-65
2021/11/14 00:47:52;;;;;;;3.90;3.60;;;;;;;20.88;54.25;97405.72;4958746;28;20664;-65
2021/11/14 00:50:18;;;;;;;3.67;3.37;;;;;;;20.93;54.21;97408.41;4974302;28;20207;-64
2021/11/14 00:52:45;;;;;;;3.90;3.50;;;;;;;20.84;54.24;97403.03;4959822;28;20211;-65
2021/11/14 00:55:14;;;;;;;3.60;3.30;;;;;;;20.93;54.33;97422.03;4945150;28;20211;-68
2021/11/14 00:57:40;;;;;;;3.53;3.23;;;;;;;20.18;54.06;97291.19;4960419;28;20262;-65
2021/11/14 01:00:13;;;;;;;3.70;3.40;;;;;;;20.93;54.18;97423.72;4972226;28;20211;-65
2021/11/14 01:02:40;;;;;;;3.97;3.67;;;;;;;20.91;54.18;97425.38;4957656;28;20629;-65
2021/11/14 01:05:07;;;;;;;3.80;3.50;;;;;;;20.93;54.36;97427.13;4956514;28;20621;-66
2021/11/14 01:07:34;;;;;;;3.80;3.50;;;;;;;20.93;54.21;97424.56;4941931;28;20269;-65
2021/11/14 01:10:02;;;;;;;3.33;3.03;;;;;;;20.71;53.95;97386.47;4972742;28;20583;-66
2021/11/14 01:12:29;;;;;;;3.80;3.50;;;;;;;20.78;54.22;97403.69;4941929;28;20360;-67
2021/11/14 01:14:55;;;;;;;3.47;3.17;;;;;;;20.79;54.25;97396.91;4946377;28;20262;-67
2021/11/14 01:17:22;;;;;;;4.17;3.50;;;;;;;20.87;54.51;97416.72;4955248;28;20214;-63
2021/11/14 01:19:49;;;;;;;3.60;3.30;;;;;;;20.62;54.06;97375.09;4957013;28;20207;-65
2021/11/14 01:22:16;;;;;;;3.67;3.37;;;;;;;20.62;54.07;97378.53;4941092;28;20329;-69
2021/11/14 01:24:43;;;;;;;3.80;3.50;;;;;;;20.80;54.20;97412.28;4971814;28;20206;-65
2021/11/14 01:27:10;;;;;;;3.80;3.50;;;;;;;20.89;54.37;97425.31;4942081;28;20215;-66
2021/11/14 01:29:37;;;;;;;3.73;3.43;;;;;;;20.87;54.19;97426.94;4956836;28;20218;-62
2021/11/14 01:32:04;;;;;;;4.33;3.93;;;;;;;20.93;54.26;97439.91;4956366;28;20219;-65
2021/11/14 01:34:31;;;;;;;3.57;3.27;;;;;;;20.93;54.21;97433.97;4940873;28;20215;-64
2021/11/14 01:36:57;;;;;;;4.10;3.80;;;;;;;20.93;54.06;97437.34;4972055;28;20199;-65
2021/11/14 01:39:24;;;;;;;4.03;3.63;;;;;;;20.78;54.12;97408.78;4941316;28;20211;-65
2021/11/14 01:41:51;;;;;;;3.57;3.27;;;;;;;20.88;54.31;97438.94;4956851;28;20230;-67
2021/11/14 01:44:17;;;;;;;3.67;3.37;;;;;;;20.79;53.85;97414.78;4938932;28;20246;-66
2021/11/14 01:46:45;;;;;;;3.80;3.40;;;;;;;20.78;54.21;97413.91;4963192;28;20278;-65
2021/11/14 01:49:11;;;;;;;4.10;3.70;;;;;;;20.78;54.46;97411.34;4937804;28;20245;-66
2021/11/14 01:51:58;;;;;;;3.70;3.40;;;;;;;20.56;54.24;97387.66;4913054;28;20255;-65
2021/11/14 01:54:25;;;;;;;3.30;3.00;;;;;;;20.66;54.28;97392.25;4916400;29;20216;-66
2021/11/14 01:56:51;;;;;;;4.03;3.70;;;;;;;20.92;54.26;97442.41;4904737;29;20556;-66
2021/11/14 01:59:18;;;;;;;3.73;3.43;;;;;;;20.88;54.23;97436.38;4916452;29;20259;-64
2021/11/14 02:01:46;;;;;;;3.90;3.60;;;;;;;20.91;54.34;97438.13;4888840;29;20698;-65
2021/11/14 02:04:13;;;;;;;3.80;3.50;;;;;;;20.75;54.19;97407.84;4906750;29;20216;-66
2021/11/14 02:06:42;;;;;;;3.93;3.63;;;;;;;20.62;53.88;97378.53;4898482;29;20241;-66
2021/11/14 02:09:09;;;;;;;4.07;3.67;;;;;;;20.91;54.14;97433.91;4913327;28;20235;-66
2021/11/14 02:11:35;;;;;;;4.03;3.63;;;;;;;20.03;54.34;97278.78;4960040;28;20234;-65
2021/11/14 02:14:02;;;;;;;3.90;3.60;;;;;;;20.74;54.18;97408.66;4970722;28;20211;-65
2021/11/14 02:16:29;;;;;;;3.90;3.60;;;;;;;20.82;54.07;97415.75;4947928;28;20266;-65
2021/11/14 02:18:56;;;;;;;3.77;3.47;;;;;;;20.70;54.38;97401.72;4956197;28;20226;-67
2021/11/14 02:21:23;;;;;;;3.50;3.20;;;;;;;19.91;54.25;97270.75;4940732;28;20235;-66
2021/11/14 02:23:50;;;;;;;4.07;3.67;;;;;;;20.91;54.34;97436.47;4956168;28;20261;-67
2021/11/14 02:26:16;;;;;;;3.83;3.53;;;;;;;20.89;54.39;97445.75;4955609;28;20265;-65
2021/11/14 02:28:43;;;;;;;3.53;3.23;;;;;;;20.78;54.34;97413.06;4953894;28;20217;-65
2021/11/14 02:31:10;;;;;;;3.90;3.60;;;;;;;20.88;54.23;97433.81;4960247;28;20236;-65
2021/11/14 02:33:38;;;;;;;3.70;3.40;;;;;;;20.92;54.40;97433.06;4955530;28;20677;-67
2021/11/14 02:36:06;;;;;;;3.50;3.20;;;;;;;19.90;54.34;97266.47;4970698;28;20219;-66
2021/11/14 02:38:33;;;;;;;3.97;3.67;;;;;;;20.71;54.31;97399.22;4940375;28;20238;-65
2021/11/14 02:41:04;;;;;;;3.57;3.27;;;;;;;20.79;54.19;97413.09;4972099;28;20719;-65
2021/11/14 02:43:31;;;;;;;3.67;3.40;;;;;;;20.71;54.13;97398.34;4939192;28;20301;-66
2021/11/14 02:45:57;;;;;;;4.07;3.77;;;;;;;20.86;54.27;97430.34;4955212;28;20238;-65
2021/11/14 02:48:24;;;;;;;3.80;3.50;;;;;;;20.91;54.05;97441.56;4956122;28;20207;-66
2021/11/14 02:50:53;;;;;;;4.33;3.93;;;;;;;20.83;54.17;97432.81;4971147;28;20235;-69
2021/11/14 02:53:20;;;;;;;3.60;3.30;;;;;;;20.92;54.21;97445.84;4940045;28;20561;-66
2021/11/14 02:55:47;;;;;;;4.07;3.67;;;;;;;20.39;53.99;97348.84;4954677;28;20214;-64
2021/11/14 02:58:14;;;;;;;4.30;3.80;;;;;;;20.65;54.25;97401.59;4960227;28;20215;-65
2021/11/14 03:00:48;;;;;;;4.00;3.67;;;;;;;20.82;54.32;97428.53;4955078;28;20238;-66
2021/11/14 03:03:15;;;;;;;4.47;4.07;;;;;;;20.86;54.33;97438.00;4940760;28;20416;-65
2021/11/14 03:05:42;;;;;;;3.40;3.10;;;;;;;20.90;54.41;97442.38;4955455;28;20619;-67
2021/11/14 03:08:09;;;;;;;3.53;3.23;;;;;;;20.87;54.16;97433.78;4939166;28;20203;-65
2021/11/14 03:10:35;;;;;;;3.80;3.50;;;;;;;20.26;54.20;97333.13;4955689;28;20226;-65
2021/11/14 03:13:09;;;;;;;3.80;3.40;;;;;;;20.87;53.96;97433.78;4955224;28;20587;-69
2021/11/14 03:15:39;;;;;;;3.57;3.27;;;;;;;20.74;54.16;97414.63;4948629;28;20207;-65
2021/11/14 03:18:05;;;;;;;3.60;3.30;;;;;;;20.92;54.37;97442.41;4954859;28;20684;-66
2021/11/14 03:20:33;;;;;;;3.80;3.50;;;;;;;20.87;54.04;97439.72;4938672;28;20238;-66
2021/11/14 03:22:59;;;;;;;3.50;3.20;;;;;;;20.91;54.20;97444.13;4938670;28;20257;-66
2021/11/14 03:25:27;;;;;;;3.40;3.10;;;;;;;20.90;54.43;97438.97;4938959;28;20285;-65
2021/11/14 03:27:54;;;;;;;3.77;3.47;;;;;;;20.69;54.62;97403.41;4939430;28;20215;-65
2021/11/14 03:30:21;;;;;;;3.33;3.10;;;;;;;20.88;54.22;97444.03;4955048;28;20210;-66
2021/11/14 03:32:47;;;;;;;3.67;3.37;;;;;;;20.93;54.26;97441.63;4956881;28;20643;-67
2021/11/14 03:35:14;;;;;;;3.63;3.33;;;;;;;20.82;54.26;97423.41;4953310;28;20285;-66
2021/11/14 03:37:41;;;;;;;3.40;3.10;;;;;;;20.88;54.20;97440.59;4953580;28;20711;-66
2021/11/14 03:40:08;;;;;;;4.00;3.70;;;;;;;20.93;54.32;97446.72;4954076;28;20211;-69
2021/11/14 03:42:35;;;;;;;4.10;3.80;;;;;;;20.92;54.18;97444.97;4955027;28;20226;-65
2021/11/14 03:45:03;;;;;;;3.60;3.30;;;;;;;20.91;54.09;97444.13;4953360;28;20269;-65
2021/11/14 03:47:29;;;;;;;3.63;3.33;;;;;;;20.72;54.02;97423.94;4938947;28;20735;-65
2021/11/14 03:49:56;;;;;;;4.13;3.70;;;;;;;20.91;54.04;97456.91;4938972;28;20215;-65
2021/11/14 03:52:23;;;;;;;3.97;3.63;;;;;;;20.86;54.26;97450.78;4953996;28;20231;-66
2021/11/14 03:54:50;;;;;;;3.67;3.37;;;;;;;20.83;54.44;97440.47;4938580;28;20261;-65
2021/11/14 03:57:24;;;;;;;3.90;3.60;;;;;;;20.90;54.10;97452.59;4955920;28;20672;-66
2021/11/14 03:59:51;;;;;;;3.90;3.60;;;;;;;20.90;54.05;97457.69;4939309;28;20491;-65
2021/11/14 04:02:17;;;;;;;3.67;3.37;;;;;;;20.90;54.14;97462.81;4953930;28;20696;-65
2021/11/14 04:04:44;;;;;;;3.80;3.37;;;;;;;20.66;54.25;97413.53;4941343;28;20211;-66
2021/11/14 04:07:12;;;;;;;3.93;3.60;;;;;;;20.90;54.26;97459.41;4951816;28;20215;-65
2021/11/14 04:09:38;;;;;;;3.93;3.63;;;;;;;20.91;54.29;97468.78;4938075;28;20253;-66
2021/11/14 04:12:06;;;;;;;3.70;3.40;;;;;;;20.90;54.17;97457.69;4953114;28;20293;-68
2021/11/14 04:14:32;;;;;;;4.43;4.03;;;;;;;20.72;54.51;97428.19;4969613;28;20219;-65
2021/11/14 04:16:59;;;;;;;3.77;3.37;;;;;;;20.85;53.96;97454.16;4952007;28;20733;-63
2021/11/14 04:19:26;;;;;;;4.13;3.73;;;;;;;20.77;54.26;97436.84;4953837;28;20253;-65
2021/11/14 04:21:54;;;;;;;4.30;3.90;;;;;;;20.83;54.23;97447.25;4954593;28;20235;-65
2021/11/14 04:24:21;;;;;;;3.93;3.63;;;;;;;20.91;54.18;97464.56;4961972;28;20221;-67
2021/11/14 04:26:47;;;;;;;4.30;3.90;;;;;;;20.92;54.29;97465.41;4952605;28;20218;-65
2021/11/14 04:29:14;;;;;;;3.73;3.43;;;;;;;20.92;54.33;97457.75;4951137;28;20828;-65
2021/11/14 04:31:41;;;;;;;3.50;3.20;;;;;;;20.91;54.30;97458.56;4953238;28;20501;-64
2021/11/14 04:34:07;;;;;;;3.60;3.30;;;;;;;20.76;54.13;97436.00;4954160;28;20660;-66
2021/11/14 04:36:34;;;;;;;3.97;3.67;;;;;;;20.61;54.27;97415.09;4953973;28;20219;-65
2021/11/14 04:39:01;;;;;;;4.07;3.73;;;;;;;20.91;54.20;97466.25;4954285;28;20285;-66
2021/11/14 04:41:27;;;;;;;4.80;4.07;;;;;;;20.76;54.22;97445.34;4954457;28;20234;-70
2021/11/14 04:43:54;;;;;;;3.97;3.50;;;;;;;20.91;54.08;97466.25;4951454;28;20278;-66
2021/11/14 04:46:21;;;;;;;3.77;3.47;;;;;;;20.82;54.15;97466.84;4938292;28;20645;-64
2021/11/14 04:48:48;;;;;;;4.00;3.60;;;;;;;20.91;53.90;97467.13;4952962;28;20238;-67
2021/11/14 04:51:14;;;;;;;3.97;3.50;;;;;;;20.77;54.13;97444.50;4940183;28;20234;-70
2021/11/14 04:53:41;;;;;;;3.93;3.63;;;;;;;20.91;54.10;97476.47;4957262;28;20289;-66
2021/11/14 04:56:07;;;;;;;4.40;4.00;;;;;;;20.86;54.14;97466.09;4957575;28;20211;-65
2021/11/14 04:58:34;;;;;;;4.13;3.80;;;;;;;20.77;54.01;97449.59;4972296;28;20203;-66
2021/11/14 05:01:01;;;;;;;3.80;3.50;;;;;;;20.90;53.74;97477.28;4973519;22;21202;-62
2021/11/14 05:03:27;;;;;;;3.67;3.37;;;;;;;20.90;54.04;97485.78;4972072;28;20233;-62
2021/11/14 05:05:57;;;;;;;3.60;3.30;;;;;;;20.91;54.00;97481.56;4979613;28;20626;-62
2021/11/14 05:08:24;;;;;;;4.47;4.07;;;;;;;19.90;54.01;97304.75;4973462;28;20262;-62
2021/11/14 05:10:51;;;;;;;3.70;3.40;;;;;;;20.90;53.83;97479.84;4987295;28;20227;-62
2021/11/14 05:13:19;;;;;;;3.80;3.50;;;;;;;20.76;54.10;97460.66;4967920;28;20214;-63
2021/11/14 05:15:46;;;;;;;3.83;3.53;;;;;;;20.90;53.96;97480.69;4972608;28;20207;-62
2021/11/14 05:18:12;;;;;;;3.87;3.57;;;;;;;20.85;54.10;97466.94;4971257;28;20277;-63
2021/11/14 05:20:39;;;;;;;3.63;3.33;;;;;;;20.76;53.99;97455.56;4972635;28;20207;-63
2021/11/14 05:23:06;;;;;;;3.93;3.53;;;;;;;20.91;53.97;97479.00;4979825;28;20231;-62
2021/11/14 05:25:33;;;;;;;4.57;4.17;;;;;;;20.91;53.59;97482.44;4972753;28;20696;-62
2021/11/14 05:27:59;;;;;;;4.27;3.87;;;;;;;20.92;53.93;97501.19;4985444;28;20265;-62
2021/11/14 05:30:26;;;;;;;3.80;3.50;;;;;;;20.77;54.08;97476.03;4954149;28;20242;-63
2021/11/14 05:32:52;;;;;;;4.93;3.80;;;;;;;20.91;53.94;97507.13;4971586;28;20230;-62
2021/11/14 05:35:19;;;;;;;10.00;3.90;;;;;;;20.80;53.97;97482.91;4967733;28;20269;-62
2021/11/14 05:37:45;;;;;;;3.93;3.63;;;;;;;20.91;53.77;97512.22;4986811;28;20242;-63
2021/11/14 05:40:12;;;;;;;4.00;3.60;;;;;;;20.76;53.85;97491.31;4977582;28;20208;-63
2021/11/14 05:42:39;;;;;;;4.13;3.70;;;;;;;20.79;53.87;97496.50;4955347;28;20787;-63
2021/11/14 05:45:06;;;;;;;3.63;3.33;;;;;;;20.78;53.88;97498.19;4961143;28;20286;-63
2021/11/14 05:47:33;;;;;;;3.80;3.50;;;;;;;19.92;53.83;97367.72;4975138;28;20207;-63
2021/11/14 05:49:59;;;;;;;4.13;3.83;;;;;;;20.80;53.76;97514.44;4985036;28;20558;-62
2021/11/14 05:52:26;;;;;;;4.63;4.23;;;;;;;20.90;54.02;97534.34;4967983;28;20227;-63
2021/11/14 05:54:53;;;;;;;4.60;4.20;;;;;;;20.75;53.75;97513.41;4971420;28;20304;-62
2021/11/14 05:57:20;;;;;;;4.23;3.83;;;;;;;20.82;53.83;97530.69;4976790;28;20207;-63
2021/11/14 06:00:00;;;;;;;4.07;3.77;;;;;;;20.75;53.76;97518.53;4976303;28;20297;-62
2021/11/14 06:07:27;;;;;;;4.13;3.77;;;;;;;20.76;53.75;97525.38;4972356;28;20614;-62
2021/11/14 06:09:56;;;;;;;4.53;4.13;;;;;;;20.76;53.81;97525.38;4972901;28;20603;-62
2021/11/14 06:12:23;;;;;;;4.10;3.70;;;;;;;20.76;53.73;97519.41;4966329;28;20664;-62
2021/11/14 06:14:50;;;;;;;3.90;3.60;;;;;;;20.90;54.02;97544.56;4971662;28;20265;-63
2021/11/14 06:17:20;;;;;;;4.77;3.93;;;;;;;20.76;53.66;97529.63;4970915;28;20329;-62
2021/11/14 06:19:47;;;;;;;4.23;3.83;;;;;;;20.90;53.82;97561.59;4972043;28;20215;-62
2021/11/14 06:22:15;;;;;;;4.50;4.10;;;;;;;20.90;53.72;97561.59;4982223;28;20242;-62
2021/11/14 06:24:42;;;;;;;4.47;4.07;;;;;;;20.77;53.80;97531.34;4979385;28;20266;-62
2021/11/14 06:27:09;;;;;;;4.17;3.87;;;;;;;20.70;53.90;97522.63;4972352;28;20219;-62
2021/11/14 06:29:36;;;;;;;4.40;4.00;;;;;;;20.76;53.87;97535.59;4961066;28;20246;-63
2021/11/14 06:32:03;;;;;;;4.37;3.97;;;;;;;20.91;53.83;97568.44;4952753;28;20641;-62
2021/11/14 06:34:29;;;;;;;4.20;3.80;;;;;;;20.75;53.73;97544.06;4985855;28;20635;-62
2021/11/14 06:36:56;;;;;;;4.17;3.87;;;;;;;20.76;53.67;97550.94;4984711;28;20265;-62
2021/11/14 06:39:22;;;;;;;3.90;3.60;;;;;;;20.85;53.58;97564.00;4977993;28;20207;-62
2021/11/14 06:41:49;;;;;;;4.50;4.10;;;;;;;20.75;53.65;97551.72;4968857;28;20322;-62
2021/11/14 06:44:16;;;;;;;4.50;4.10;;;;;;;20.75;53.62;97559.38;4969912;28;20254;-63
2021/11/14 06:46:42;;;;;;;4.60;4.20;;;;;;;20.75;53.67;97573.88;4966683;28;20258;-62
2021/11/14 06:49:09;;;;;;;4.83;4.40;;;;;;;20.88;53.76;97604.97;4978896;28;20733;-63
2021/11/14 06:51:36;;;;;;;4.53;4.13;;;;;;;20.88;53.62;97597.31;4971014;28;20223;-62
2021/11/14 06:54:02;;;;;;;4.80;4.40;;;;;;;20.88;53.88;97602.41;4966258;28;20215;-62
2021/11/14 06:56:29;;;;;;;4.23;3.93;;;;;;;20.74;53.74;97588.31;4970492;28;20242;-63
2021/11/14 06:58:56;;;;;;;4.63;4.23;;;;;;;20.74;53.89;97589.97;4953912;28;20318;-63
2021/11/14 07:01:22;;;;;;;4.90;4.33;;;;;;;20.88;53.73;97612.63;4974355;28;20239;-63
2021/11/14 07:03:49;;;;;;;4.50;4.10;;;;;;;20.73;53.79;97589.13;4969948;28;20317;-62
2021/11/14 07:06:16;;;;;;;4.53;4.13;;;;;;;20.88;53.85;97610.06;4970002;28;20507;-62
2021/11/14 07:08:42;;;;;;;4.70;4.30;;;;;;;20.75;53.73;97597.69;4984058;28;20202;-62
2021/11/14 07:11:09;;;;;;;4.53;4.13;;;;;;;19.83;53.73;97441.38;4963919;28;20798;-63
2021/11/14 07:13:36;;;;;;;4.43;4.03;;;;;;;20.73;53.76;97604.47;4981001;28;20318;-62
2021/11/14 07:16:02;;;;;;;4.53;4.13;;;;;;;20.74;53.69;97598.53;4982594;28;20579;-63
2021/11/14 07:18:29;;;;;;;4.83;4.43;;;;;;;20.88;53.94;97627.06;4966779;28;20246;-63
2021/11/14 07:20:56;;;;;;;5.07;4.67;;;;;;;20.74;53.89;97613.84;4964874;28;20738;-63
2021/11/14 07:23:22;;;;;;;4.80;4.30;;;;;;;20.74;53.57;97613.84;4949082;28;20227;-63
2021/11/14 07:25:49;;;;;;;4.60;4.13;;;;;;;20.89;53.77;97645.00;4968522;28;20245;-63
2021/11/14 07:28:16;;;;;;;5.03;4.63;;;;;;;20.90;53.80;97651.00;4967842;28;20304;-63
2021/11/14 07:30:42;;;;;;;4.83;4.43;;;;;;;20.76;53.72;97624.13;4963057;28;20207;-63
2021/11/14 07:33:13;;;;;;;4.30;3.90;;;;;;;20.89;53.57;97650.13;4950897;28;20209;-63
2021/11/14 07:35:40;;;;;;;4.30;3.90;;;;;;;20.89;53.77;97639.91;4972792;28;20677;-63
2021/11/14 07:38:06;;;;;;;5.07;4.67;;;;;;;20.75;53.60;97609.63;4980347;28;20208;-63
2021/11/14 07:40:33;;;;;;;4.83;4.43;;;;;;;20.75;53.59;97617.28;4952217;28;20238;-62
2021/11/14 07:43:00;;;;;;;5.23;4.60;;;;;;;20.90;53.61;97648.44;4980716;28;20690;-62
2021/11/14 07:45:27;;;;;;;4.50;4.10;;;;;;;20.87;53.56;97641.53;4982736;28;20328;-62
2021/11/14 07:47:54;;;;;;;5.03;4.63;;;;;;;20.88;53.64;97643.28;4987484;28;20230;-62
2021/11/14 07:50:23;;;;;;;4.43;4.03;;;;;;;20.88;53.55;97633.06;4985045;28;20785;-63
2021/11/14 07:52:49;;;;;;;6.10;5.50;;;;;;;20.87;53.38;97630.47;4979391;28;20261;-62
2021/11/14 07:55:16;;;;;;;6.67;5.83;;;;;;;20.87;53.54;97627.91;4979920;28;20290;-62
2021/11/14 07:57:43;;;;;;;8.00;7.20;;;;;;;20.87;52.23;97630.47;4975820;28;20242;-62
2021/11/14 08:00:17;;;;;;;8.93;8.03;;;;;;;20.86;51.46;97637.25;4981778;28;20290;-62
2021/11/14 08:02:44;;;;;;;9.83;8.83;;;;;;;20.85;50.80;97642.31;4978346;28;20326;-62
2021/11/14 08:05:11;;;;;;;10.33;9.33;;;;;;;20.84;50.22;97643.13;4981496;28;20227;-62
2021/11/14 08:07:37;;;;;;;10.83;9.73;;;;;;;20.83;49.57;97638.81;4980524;28;20394;-62
2021/11/14 08:10:05;;;;;;;10.80;9.70;;;;;;;20.82;49.35;97637.09;4981661;28;20287;-62
2021/11/14 08:12:31;;;;;;;11.00;9.90;;;;;;;20.80;49.28;97634.47;4978746;28;20263;-62
2021/11/14 08:14:58;;;;;;;11.40;10.30;;;;;;;20.79;48.95;97630.19;4975729;28;20233;-62
2021/11/14 08:17:25;;;;;;;11.97;10.80;;;;;;;20.79;48.70;97631.88;4979007;28;20634;-62
2021/11/14 08:19:51;;;;;;;12.00;10.60;;;;;;;20.77;48.48;97644.59;4978194;28;20735;-62
2021/11/14 08:22:20;;;;;;;11.63;10.47;;;;;;;20.76;48.26;97636.88;4984167;28;20305;-63
2021/11/14 08:24:46;;;;;;;12.90;11.53;;;;;;;20.75;48.63;97636.00;4972678;28;20306;-62
2021/11/14 08:27:13;;;;;;;12.83;11.53;;;;;;;20.74;48.17;97634.28;4981849;28;20282;-63
2021/11/14 08:29:39;;;;;;;12.60;10.87;;;;;;;20.73;47.82;97635.09;4981687;28;20250;-62
2021/11/14 08:32:06;;;;;;;12.77;11.27;;;;;;;20.72;48.08;97641.00;4977833;28;20298;-62
2021/11/14 08:34:33;;;;;;;13.23;11.37;;;;;;;20.71;48.33;97641.84;4987572;28;20663;-63
2021/11/14 08:37:00;;;;;;;11.50;10.40;;;;;;;20.71;48.51;97648.63;4986368;28;20234;-61
2021/11/14 08:39:26;;;;;;;12.70;11.37;;;;;;;20.70;48.71;97646.88;4988093;28;20297;-63
2021/11/14 08:41:53;;;;;;;13.03;11.60;;;;;;;20.69;48.29;97646.00;4987246;28;20222;-62
2021/11/14 08:44:24;;;;;;;12.57;11.30;;;;;;;20.68;47.72;97646.84;4986924;28;20262;-62
2021/11/14 08:46:55;;;;;;;12.07;10.87;;;;;;;20.66;47.79;97650.16;4981781;28;20735;-62
2021/11/14 08:49:23;;;;;;;13.70;11.70;;;;;;;20.67;47.93;97646.78;4988531;28;20203;-62
2021/11/14 08:51:50;;;;;;;13.20;11.87;;;;;;;20.66;47.85;97655.28;4986611;28;20642;-62
2021/11/14 08:54:16;;;;;;;12.60;11.30;;;;;;;20.66;48.02;97657.81;4986589;28;20297;-62
2021/11/14 08:56:43;;;;;;;14.37;12.30;;;;;;;20.65;48.04;97656.94;4979620;28;20234;-62
2021/11/14 08:59:09;;;;;;;14.10;11.80;;;;;;;20.65;48.57;97654.41;4983499;28;20249;-63
2021/11/14 09:01:37;;;;;;;11.97;10.77;;;;;;;20.66;49.02;97660.38;4982612;28;20665;-62
2021/11/14 09:04:05;;;;;;;11.93;10.73;;;;;;;20.66;49.17;97657.81;4985789;28;20282;-62
2021/11/14 09:06:32;;;;;;;11.20;10.10;;;;;;;20.66;49.23;97660.38;4984215;28;20242;-61
2021/11/14 09:08:59;;;;;;;10.70;9.60;;;;;;;20.66;49.80;97666.34;4981501;28;20243;-62
2021/11/14 09:11:26;;;;;;;10.10;9.07;;;;;;;20.67;49.94;97670.66;4988338;28;20895;-62
2021/11/14 09:13:52;;;;;;;9.57;8.70;;;;;;;20.67;50.30;97675.75;4978316;28;20274;-62
2021/11/14 09:16:19;;;;;;;9.00;8.10;;;;;;;20.68;50.29;97681.72;4978787;28;20326;-62
2021/11/14 09:18:45;;;;;;;8.13;7.30;;;;;;;20.68;50.53;97671.50;4988810;28;20258;-62
2021/11/14 09:21:12;;;;;;;7.73;6.97;;;;;;;20.68;51.04;97672.38;4982590;28;20768;-62
2021/11/14 09:23:43;;;;;;;7.50;6.80;;;;;;;20.69;51.44;97676.66;4984011;28;20231;-62
2021/11/14 09:26:10;;;;;;;7.43;6.73;;;;;;;20.69;51.27;97675.81;4977800;28;20239;-62
2021/11/14 09:28:36;;;;;;;7.20;6.50;;;;;;;20.70;51.05;97669.88;4988211;28;20286;-62
2021/11/14 09:31:03;;;;;;;7.53;6.83;;;;;;;20.71;51.26;97671.59;4985100;28;20648;-62
2021/11/14 09:33:31;;;;;;;7.23;6.53;;;;;;;20.70;51.30;97675.88;4977491;28;20294;-62
2021/11/14 09:35:57;;;;;;;7.73;6.67;;;;;;;20.72;51.52;97681.88;4983307;28;20777;-62
2021/11/14 09:38:24;;;;;;;7.03;6.33;;;;;;;20.73;51.53;97670.88;4982834;28;20294;-62
2021/11/14 09:40:51;;;;;;;7.03;6.10;;;;;;;20.73;51.63;97677.66;4984587;28;20219;-62
2021/11/14 09:43:19;;;;;;;6.60;6.00;;;;;;;20.74;51.49;97687.03;4973998;28;20204;-62
2021/11/14 09:45:46;;;;;;;6.70;6.10;;;;;;;20.74;51.77;97689.59;4976411;28;20230;-61
2021/11/14 09:48:13;;;;;;;7.10;6.37;;;;;;;20.74;51.70;97679.38;4989094;28;20202;-62
2021/11/14 09:50:39;;;;;;;6.47;5.87;;;;;;;20.74;51.80;97684.47;4984427;28;20290;-62
2021/11/14 09:53:06;;;;;;;6.67;6.00;;;;;;;19.79;51.89;97523.69;4988152;28;20231;-62
2021/11/14 09:55:36;;;;;;;6.20;5.60;;;;;;;20.75;51.93;97686.25;4982373;28;20605;-62
2021/11/14 09:58:04;;;;;;;7.87;7.07;;;;;;;20.74;51.24;97680.25;4977903;28;20217;-63
2021/11/14 10:00:31;;;;;;;9.87;8.83;;;;;;;20.73;50.66;97668.31;4982858;28;20687;-63
2021/11/14 10:02:58;;;;;;;11.27;8.57;;;;;;;20.60;50.60;97640.59;4978892;28;20685;-62
2021/11/14 10:05:24;;;;;;;7.83;7.03;;;;;;;20.72;50.90;97663.16;4967346;28;20341;-62
2021/11/14 10:08:05;;;;;;;7.73;6.97;;;;;;;20.66;51.20;97647.63;4969948;28;20619;-62
2021/11/14 10:10:33;;;;;;;8.23;7.37;;;;;;;20.72;51.35;97664.00;4968453;28;20206;-62
2021/11/14 10:13:30;;;;;;;8.73;7.40;;;;;;;20.72;51.59;97656.34;4977934;28;20211;-63
2021/11/14 10:16:06;;;;;;;7.13;6.43;;;;;;;20.72;51.71;97664.00;4985188;28;20234;-62
2021/11/14 10:18:33;;;;;;;7.73;6.93;;;;;;;20.60;51.71;97634.63;4986384;28;20203;-62
2021/11/14 10:21:02;;;;;;;6.80;6.10;;;;;;;20.73;52.00;97652.97;4970667;28;20227;-63
2021/11/14 10:23:31;;;;;;;6.83;6.23;;;;;;;20.73;51.92;97652.97;4977613;28;21487;-62
2021/11/14 10:26:05;;;;;;;7.63;6.87;;;;;;;20.61;51.68;97632.13;4975513;28;20231;-63
2021/11/14 10:28:32;;;;;;;7.03;6.37;;;;;;;20.61;51.94;97623.59;4968387;28;20206;-62
2021/11/14 10:30:59;;;;;;;8.00;7.20;;;;;;;20.60;51.79;97619.31;4958442;28;20250;-63
2021/11/14 10:33:26;;;;;;;6.27;5.63;;;;;;;19.84;51.78;97491.53;4966663;28;20206;-63
2021/11/14 10:35:58;;;;;;;6.70;6.10;;;;;;;20.74;51.70;97643.63;4969806;28;20269;-62
2021/11/14 10:38:33;;;;;;;6.90;6.20;;;;;;;20.73;51.94;97642.78;4974773;28;20239;-62
2021/11/14 10:41:01;;;;;;;6.70;6.00;;;;;;;20.74;51.78;97647.03;4981423;28;20310;-62
2021/11/14 10:43:28;;;;;;;7.73;6.73;;;;;;;20.74;51.85;97646.16;4982001;28;20282;-62
2021/11/14 10:45:56;;;;;;;6.90;6.30;;;;;;;20.75;51.99;97645.38;4976936;28;20244;-62
2021/11/14 10:48:23;;;;;;;7.83;5.83;;;;;;;20.75;51.98;97640.25;4984671;28;20556;-62
2021/11/14 10:50:53;;;;;;;6.73;6.10;;;;;;;20.74;52.13;97639.38;4980178;28;20265;-62
2021/11/14 10:53:24;;;;;;;6.40;5.80;;;;;;;20.76;52.28;97654.75;4984953;28;20234;-63
2021/11/14 10:55:57;;;;;;;6.77;6.07;;;;;;;20.76;52.28;97654.75;4986053;28;20191;-62
2021/11/14 10:58:25;;;;;;;6.30;5.70;;;;;;;20.76;52.45;97642.00;4987596;28;20676;-62
2021/11/14 11:00:55;;;;;;;6.63;5.70;;;;;;;20.76;52.46;97642.88;4979299;28;20704;-62
2021/11/14 11:03:22;;;;;;;5.80;5.30;;;;;;;20.78;52.48;97637.81;5019543;23;20590;-66
2021/11/14 11:05:49;;;;;;;6.43;5.43;;;;;;;20.78;52.58;97643.78;4964999;28;20565;-66
2021/11/14 11:08:21;;;;;;;6.60;5.50;;;;;;;20.74;52.61;97636.84;4974905;28;20596;-64
2021/11/14 11:10:53;;;;;;;8.63;5.83;;;;;;;20.66;52.45;97624.63;4946933;28;20253;-68
2021/11/14 11:13:33;;;;;;;5.53;5.03;;;;;;;20.79;52.42;97642.97;4957509;28;20297;-68
2021/11/14 11:16:11;;;;;;;6.57;5.77;;;;;;;20.79;52.46;97642.09;4944672;28;20198;-67
2021/11/14 11:18:38;;;;;;;6.43;5.30;;;;;;;20.78;52.39;97638.66;4946983;28;20211;-66
2021/11/14 11:21:06;;;;;;;7.03;5.40;;;;;;;20.47;52.32;97574.63;4965900;28;20930;-66
2021/11/14 11:23:34;;;;;;;7.57;5.80;;;;;;;20.78;52.67;97630.16;4969191;28;20265;-68
2021/11/14 11:26:03;;;;;;;6.83;5.80;;;;;;;19.98;52.55;97495.47;4983464;28;20258;-65
2021/11/14 11:28:41;;;;;;;7.20;6.33;;;;;;;20.67;52.68;97613.59;4986725;28;20251;-67
2021/11/14 11:31:09;;;;;;;6.30;5.40;;;;;;;19.80;52.59;97465.88;4961503;28;21047;-66
2021/11/14 11:33:41;;;;;;;7.57;5.30;;;;;;;20.77;52.57;97625.84;4979737;28;20634;-72
2021/11/14 11:36:08;;;;;;;6.30;5.57;;;;;;;20.69;52.64;97617.06;4962541;28;20257;-69
2021/11/14 11:38:36;;;;;;;8.07;5.20;;;;;;;20.70;52.78;97611.13;4979301;28;20277;-67